createdAt,value
2022-10-01T00:02:12.450Z,16.92
2022-10-01T00:04:58.278Z,16.87
2022-10-01T00:07:44.914Z,16.89
2022-10-01T00:10:31.504Z,16.89
2022-10-01T00:13:17.095Z,16.86
2022-10-01T00:16:08.692Z,16.86
2022-10-01T00:18:55.292Z,16.84
2022-10-01T00:21:41.372Z,16.83
2022-10-01T00:24:27.333Z,16.80
2022-10-01T00:27:13.713Z,16.76
2022-10-01T00:29:59.733Z,16.71
2022-10-01T00:32:45.379Z,16.71
2022-10-01T00:35:31.104Z,16.69
2022-10-01T00:38:16.799Z,16.68
2022-10-01T00:41:03.277Z,16.68
2022-10-01T00:43:53.651Z,16.67
2022-10-01T00:46:41.877Z,16.68
2022-10-01T00:49:28.602Z,16.67
2022-10-01T00:52:18.808Z,16.70
2022-10-01T00:55:14.122Z,16.71
2022-10-01T00:58:00.422Z,16.72
2022-10-01T01:00:46.316Z,16.73
2022-10-01T01:03:32.286Z,16.72
2022-10-01T01:06:18.379Z,16.73
2022-10-01T01:09:04.214Z,16.76
2022-10-01T01:12:05.376Z,16.72
2022-10-01T01:15:10.503Z,16.73
2022-10-01T01:17:56.226Z,16.76
2022-10-01T01:21:00.564Z,16.72
2022-10-01T01:24:04.015Z,16.72
2022-10-01T01:27:08.309Z,16.71
2022-10-01T01:30:04.281Z,16.69
2022-10-01T01:33:09.476Z,16.65
2022-10-01T01:35:58.691Z,16.67
2022-10-01T01:38:57.673Z,16.63
2022-10-01T01:41:50.003Z,16.58
2022-10-01T01:44:38.835Z,16.60
2022-10-01T01:47:26.045Z,16.56
2022-10-01T01:50:13.886Z,16.53
2022-10-01T01:52:59.918Z,16.51
2022-10-01T01:55:49.398Z,16.47
2022-10-01T01:58:35.787Z,16.49
2022-10-01T02:01:40.041Z,16.44
2022-10-01T02:04:55.006Z,16.40
2022-10-01T02:07:53.678Z,16.39
2022-10-01T02:11:06.009Z,16.34
2022-10-01T02:14:36.594Z,16.31
2022-10-01T02:17:38.539Z,16.29
2022-10-01T02:20:52.224Z,16.29
2022-10-01T02:23:50.661Z,16.28
2022-10-01T02:26:38.211Z,16.31
2022-10-01T02:29:24.115Z,16.29
2022-10-01T02:32:11.284Z,16.31
2022-10-01T02:34:57.223Z,16.31
2022-10-01T02:37:44.439Z,16.34
2022-10-01T02:40:32.804Z,16.34
2022-10-01T02:43:32.783Z,16.34
2022-10-01T02:46:30.639Z,16.37
2022-10-01T02:49:16.281Z,16.37
2022-10-01T02:52:07.890Z,16.37
2022-10-01T02:54:59.800Z,16.36
2022-10-01T02:57:45.987Z,16.37
2022-10-01T03:00:31.748Z,16.39
2022-10-01T03:03:17.325Z,16.40
2022-10-01T03:06:02.889Z,16.38
2022-10-01T03:08:48.591Z,16.37
2022-10-01T03:11:34.894Z,16.37
2022-10-01T03:14:20.652Z,16.39
2022-10-01T03:17:07.526Z,16.42
2022-10-01T03:19:53.357Z,16.44
2022-10-01T03:22:39.020Z,16.45
2022-10-01T03:25:24.546Z,16.46
2022-10-01T03:28:11.342Z,16.44
2022-10-01T03:31:12.612Z,16.45
2022-10-01T03:34:00.518Z,16.47
2022-10-01T03:36:47.051Z,16.46
2022-10-01T03:39:33.048Z,16.46
2022-10-01T03:42:18.664Z,16.43
2022-10-01T03:45:04.493Z,16.43
2022-10-01T03:47:53.566Z,16.42
2022-10-01T03:50:39.270Z,16.42
2022-10-01T03:53:27.235Z,16.34
2022-10-01T03:56:14.114Z,16.39
2022-10-01T03:58:59.984Z,16.40
2022-10-01T04:01:45.798Z,16.37
2022-10-01T04:04:31.407Z,16.35
2022-10-01T04:07:16.994Z,16.31
2022-10-01T04:10:02.677Z,16.22
2022-10-01T04:12:48.308Z,16.27
2022-10-01T04:15:34.569Z,16.25
2022-10-01T04:18:21.576Z,16.22
2022-10-01T04:21:07.672Z,16.20
2022-10-01T04:23:53.758Z,16.18
2022-10-01T04:26:39.821Z,16.17
2022-10-01T04:29:25.658Z,16.16
2022-10-01T04:32:11.372Z,16.02
2022-10-01T04:34:57.358Z,16.14
2022-10-01T04:37:43.265Z,16.14
2022-10-01T04:40:38.480Z,16.12
2022-10-01T04:43:24.551Z,16.10
2022-10-01T04:46:10.145Z,16.11
2022-10-01T04:48:55.858Z,16.12
2022-10-01T04:51:41.987Z,16.13
2022-10-01T04:54:28.396Z,16.11
2022-10-01T04:57:14.398Z,16.14
2022-10-01T05:00:00.193Z,16.11
2022-10-01T05:02:46.918Z,16.13
2022-10-01T05:05:35.021Z,16.14
2022-10-01T05:08:22.622Z,16.14
2022-10-01T05:11:08.732Z,16.14
2022-10-01T05:13:54.837Z,16.17
2022-10-01T05:16:41.075Z,16.18
2022-10-01T05:19:29.233Z,16.19
2022-10-01T05:22:16.304Z,16.23
2022-10-01T05:25:02.255Z,16.24
2022-10-01T05:27:48.232Z,16.28
2022-10-01T05:30:34.675Z,16.28
2022-10-01T05:33:20.557Z,16.30
2022-10-01T05:36:07.079Z,16.29
2022-10-01T05:38:53.026Z,16.32
2022-10-01T05:41:40.498Z,16.35
2022-10-01T05:44:27.153Z,16.40
2022-10-01T05:47:14.107Z,16.42
2022-10-01T05:49:59.880Z,16.44
2022-10-01T05:52:53.186Z,16.48
2022-10-01T05:55:39.317Z,16.49
2022-10-01T05:58:25.048Z,16.52
2022-10-01T06:01:10.725Z,16.52
2022-10-01T06:03:56.497Z,16.52
2022-10-01T06:06:42.482Z,16.58
2022-10-01T06:09:28.308Z,16.58
2022-10-01T06:12:18.955Z,16.59
2022-10-01T06:15:06.071Z,16.59
2022-10-01T06:17:51.908Z,16.65
2022-10-01T06:20:38.706Z,16.69
2022-10-01T06:23:24.589Z,16.68
2022-10-01T06:26:10.563Z,16.72
2022-10-01T06:28:56.682Z,16.70
2022-10-01T06:31:42.705Z,16.69
2022-10-01T06:34:28.714Z,16.77
2022-10-01T06:37:14.563Z,16.72
2022-10-01T06:40:00.554Z,16.79
2022-10-01T06:42:52.724Z,16.81
2022-10-01T06:45:43.234Z,16.81
2022-10-01T06:48:31.032Z,16.87
2022-10-01T06:51:36.845Z,16.91
2022-10-01T06:54:23.379Z,16.96
2022-10-01T06:57:09.372Z,17.04
2022-10-01T06:59:55.038Z,17.06
2022-10-01T07:02:41.254Z,17.15
2022-10-01T07:05:27.499Z,17.17
2022-10-01T07:08:13.845Z,17.23
2022-10-01T07:11:02.490Z,17.26
2022-10-01T07:13:52.350Z,17.32
2022-10-01T07:16:41.607Z,17.36
2022-10-01T07:19:27.507Z,17.40
2022-10-01T07:22:13.448Z,17.42
2022-10-01T07:24:59.317Z,17.43
2022-10-01T07:27:45.114Z,17.47
2022-10-01T07:30:31.851Z,17.48
2022-10-01T07:33:20.877Z,17.52
2022-10-01T07:36:08.923Z,17.54
2022-10-01T07:38:55.887Z,17.59
2022-10-01T07:41:42.866Z,17.59
2022-10-01T07:44:29.524Z,17.61
2022-10-01T07:47:15.257Z,17.69
2022-10-01T07:50:01.185Z,17.68
2022-10-01T07:52:51.817Z,17.72
2022-10-01T07:55:37.694Z,17.77
2022-10-01T07:58:24.266Z,17.78
2022-10-01T08:01:10.396Z,17.82
2022-10-01T08:03:56.211Z,17.86
2022-10-01T08:06:42.745Z,17.90
2022-10-01T08:09:28.784Z,17.93
2022-10-01T08:12:14.636Z,17.99
2022-10-01T08:15:02.215Z,18.02
2022-10-01T08:17:47.983Z,18.06
2022-10-01T08:20:34.206Z,18.10
2022-10-01T08:23:19.934Z,18.12
2022-10-01T08:26:07.959Z,18.14
2022-10-01T08:28:53.931Z,18.17
2022-10-01T08:31:39.751Z,18.17
2022-10-01T08:34:25.858Z,18.16
2022-10-01T08:37:11.633Z,18.27
2022-10-01T08:39:57.452Z,18.31
2022-10-01T08:43:07.638Z,18.37
2022-10-01T08:45:59.919Z,18.42
2022-10-01T08:48:56.843Z,18.56
2022-10-01T08:51:43.898Z,18.67
2022-10-01T08:54:40.228Z,18.79
2022-10-01T08:57:30.378Z,18.89
2022-10-01T09:00:18.408Z,18.99
2022-10-01T09:03:06.711Z,19.11
2022-10-01T09:06:14.191Z,19.23
2022-10-01T09:09:35.867Z,19.33
2022-10-01T09:12:53.566Z,19.50
2022-10-01T09:16:01.791Z,19.63
2022-10-01T09:19:03.665Z,19.76
2022-10-01T09:21:59.498Z,19.88
2022-10-01T09:25:12.393Z,19.97
2022-10-01T09:28:07.742Z,20.05
2022-10-01T09:31:22.769Z,20.08
2022-10-01T09:34:34.234Z,20.13
2022-10-01T09:37:32.658Z,20.20
2022-10-01T09:40:26.597Z,20.24
2022-10-01T09:43:12.650Z,20.30
2022-10-01T09:45:59.097Z,20.39
2022-10-01T09:49:08.482Z,20.46
2022-10-01T09:51:59.008Z,20.53
2022-10-01T09:54:54.580Z,20.65
2022-10-01T09:58:02.462Z,20.80
2022-10-01T10:00:51.548Z,20.88
2022-10-01T10:03:37.396Z,20.98
2022-10-01T10:06:28.217Z,21.05
2022-10-01T10:09:17.026Z,21.03
2022-10-01T10:12:10.531Z,21.17
2022-10-01T10:14:59.014Z,21.14
2022-10-01T10:17:49.922Z,21.32
2022-10-01T10:29:45.659Z,21.64
2022-10-01T10:32:31.859Z,21.71
2022-10-01T10:39:47.964Z,21.98
2022-10-01T10:42:34.744Z,22.15
2022-10-01T10:45:36.602Z,22.30
2022-10-01T10:52:45.540Z,22.64
2022-10-01T10:55:31.718Z,22.83
2022-10-01T10:58:26.145Z,23.06
2022-10-01T11:01:28.131Z,23.21
2022-10-01T11:04:42.363Z,23.40
2022-10-01T11:07:28.943Z,23.40
2022-10-01T11:10:51.386Z,23.40
2022-10-01T11:14:03.290Z,23.54
2022-10-01T11:16:55.101Z,23.99
2022-10-01T11:19:45.379Z,24.51
2022-10-01T11:22:55.983Z,25.06
2022-10-01T11:26:21.945Z,25.49
2022-10-01T11:29:27.974Z,25.71
2022-10-01T11:37:15.341Z,25.91
2022-10-01T11:40:18.166Z,25.90
2022-10-01T11:43:14.660Z,25.80
2022-10-01T11:51:01.754Z,26.05
2022-10-01T11:53:51.385Z,26.00
2022-10-01T12:00:27.234Z,25.59
2022-10-01T12:03:21.856Z,25.32
2022-10-01T12:06:14.857Z,24.97
2022-10-01T12:09:44.875Z,24.73
2022-10-01T12:13:52.997Z,24.38
2022-10-01T12:16:52.080Z,24.02
2022-10-01T12:19:41.856Z,23.73
2022-10-01T12:22:36.153Z,23.54
2022-10-01T12:25:29.022Z,23.35
2022-10-01T12:28:19.844Z,23.19
2022-10-01T12:31:37.862Z,23.01
2022-10-01T12:35:34.303Z,22.80
2022-10-01T12:38:32.398Z,22.61
2022-10-01T12:41:44.263Z,22.49
2022-10-01T12:48:56.776Z,22.47
2022-10-01T12:51:53.086Z,22.67
2022-10-01T12:59:40.930Z,22.75
2022-10-01T13:06:48.658Z,22.52
2022-10-01T13:10:06.378Z,22.42
2022-10-01T13:13:08.008Z,22.32
2022-10-01T13:16:23.232Z,22.22
2022-10-01T13:20:08.300Z,22.11
2022-10-01T13:23:15.386Z,21.99
2022-10-01T13:26:32.939Z,21.89
2022-10-01T13:29:53.474Z,21.83
2022-10-01T13:32:57.764Z,21.74
2022-10-01T13:36:13.377Z,21.69
2022-10-01T13:39:22.491Z,21.62
2022-10-01T13:42:36.079Z,21.58
2022-10-01T13:45:26.940Z,21.57
2022-10-01T13:48:22.231Z,21.57
2022-10-01T13:51:11.656Z,21.58
2022-10-01T13:54:00.820Z,21.69
2022-10-01T13:56:47.093Z,21.76
2022-10-01T13:59:35.924Z,21.79
2022-10-01T14:02:39.003Z,21.79
2022-10-01T14:05:37.538Z,21.75
2022-10-01T14:08:28.434Z,21.70
2022-10-01T14:11:42.674Z,21.62
2022-10-01T14:14:56.277Z,21.50
2022-10-01T14:17:46.011Z,21.53
2022-10-01T14:20:37.757Z,21.53
2022-10-01T14:23:52.030Z,21.56
2022-10-01T14:26:47.339Z,21.59
2022-10-01T14:30:01.393Z,21.61
2022-10-01T14:33:08.406Z,21.64
2022-10-01T14:36:11.830Z,21.69
2022-10-01T14:39:16.727Z,21.74
2022-10-01T14:42:17.997Z,21.79
2022-10-01T14:45:18.331Z,21.83
2022-10-01T14:48:07.164Z,21.88
2022-10-01T14:50:56.066Z,21.88
2022-10-01T14:53:43.271Z,21.93
2022-10-01T14:56:29.495Z,21.92
2022-10-01T14:59:37.021Z,21.94
2022-10-01T15:02:24.957Z,21.92
2022-10-01T15:05:31.151Z,21.90
2022-10-01T15:08:17.244Z,21.87
2022-10-01T15:11:06.071Z,21.87
2022-10-01T15:13:55.181Z,21.80
2022-10-01T15:16:41.382Z,21.82
2022-10-01T15:19:27.774Z,21.75
2022-10-01T15:22:16.371Z,21.73
2022-10-01T15:25:02.702Z,21.68
2022-10-01T15:27:49.680Z,21.62
2022-10-01T15:30:36.906Z,21.53
2022-10-01T15:33:29.246Z,21.43
2022-10-01T15:36:19.103Z,21.42
2022-10-01T15:39:26.683Z,21.34
2022-10-01T15:42:25.965Z,21.30
2022-10-01T15:45:25.422Z,21.25
2022-10-01T15:48:41.916Z,21.22
2022-10-01T15:51:28.682Z,21.24
2022-10-01T15:54:15.639Z,21.20
2022-10-01T15:57:02.930Z,21.20
2022-10-01T15:59:50.800Z,21.18
2022-10-01T16:02:37.055Z,21.18
2022-10-01T16:05:26.713Z,21.14
2022-10-01T16:08:21.486Z,21.10
2022-10-01T16:11:18.444Z,21.03
2022-10-01T16:14:31.092Z,20.98
2022-10-01T16:17:17.202Z,20.95
2022-10-01T16:20:15.508Z,20.89
2022-10-01T16:23:32.381Z,20.85
2022-10-01T16:26:27.457Z,20.81
2022-10-01T16:29:13.170Z,20.81
2022-10-01T16:32:01.589Z,20.78
2022-10-01T16:34:47.566Z,20.72
2022-10-01T16:37:33.710Z,20.74
2022-10-01T16:40:21.946Z,20.70
2022-10-01T16:43:09.878Z,20.69
2022-10-01T16:45:56.378Z,20.66
2022-10-01T16:48:42.479Z,20.64
2022-10-01T16:51:28.895Z,20.62
2022-10-01T16:54:25.351Z,20.60
2022-10-01T16:57:11.486Z,20.59
2022-10-01T16:59:57.485Z,20.57
2022-10-01T17:02:43.509Z,20.54
2022-10-01T17:05:31.783Z,20.54
2022-10-01T17:08:17.885Z,20.43
2022-10-01T17:11:04.200Z,20.50
2022-10-01T17:13:50.404Z,20.47
2022-10-01T17:16:36.705Z,20.44
2022-10-01T17:19:23.055Z,20.42
2022-10-01T17:22:09.237Z,20.37
2022-10-01T17:24:55.266Z,20.38
2022-10-01T17:27:41.192Z,20.35
2022-10-01T17:30:30.195Z,20.29
2022-10-01T17:33:21.020Z,20.27
2022-10-01T17:36:08.220Z,20.26
2022-10-01T17:38:54.418Z,20.24
2022-10-01T17:41:40.378Z,20.20
2022-10-01T17:44:26.951Z,20.14
2022-10-01T17:47:13.068Z,20.12
2022-10-01T17:49:58.925Z,20.04
2022-10-01T17:52:47.358Z,20.03
2022-10-01T17:55:34.249Z,20.01
2022-10-01T17:58:20.342Z,19.98
2022-10-01T18:01:19.880Z,19.95
2022-10-01T18:04:06.280Z,19.92
2022-10-01T18:06:57.893Z,19.91
2022-10-01T18:09:46.175Z,19.87
2022-10-01T18:12:33.771Z,19.86
2022-10-01T18:15:22.666Z,19.82
2022-10-01T18:19:31.144Z,19.83
2022-10-01T18:21:15.086Z,19.84
2022-10-01T18:24:04.509Z,19.81
2022-10-01T18:26:50.638Z,19.80
2022-10-01T18:29:36.697Z,19.79
2022-10-01T18:32:24.920Z,19.79
2022-10-01T18:35:28.786Z,19.79
2022-10-01T18:38:24.468Z,19.74
2022-10-01T18:41:32.427Z,19.76
2022-10-01T18:44:20.588Z,19.65
2022-10-01T18:47:28.384Z,19.74
2022-10-01T18:50:51.861Z,19.71
2022-10-01T18:54:04.274Z,19.71
2022-10-01T18:57:17.972Z,19.61
2022-10-01T19:00:08.783Z,19.69
2022-10-01T19:03:54.395Z,19.64
2022-10-01T19:06:57.218Z,19.61
2022-10-01T19:09:56.690Z,19.62
2022-10-01T19:13:06.815Z,19.59
2022-10-01T19:16:04.234Z,19.58
2022-10-01T19:18:55.119Z,19.57
2022-10-01T19:21:52.705Z,19.55
2022-10-01T19:24:54.546Z,19.53
2022-10-01T19:28:14.919Z,19.52
2022-10-01T19:31:33.036Z,19.51
2022-10-01T19:34:37.330Z,19.51
2022-10-01T19:37:30.121Z,19.45
2022-10-01T19:40:35.573Z,19.47
2022-10-01T19:43:33.975Z,19.45
2022-10-01T19:46:27.486Z,19.42
2022-10-01T19:49:21.718Z,19.39
2022-10-01T19:52:18.322Z,19.37
2022-10-01T19:55:23.111Z,19.36
2022-10-01T19:58:18.301Z,19.32
2022-10-01T20:01:16.044Z,19.27
2022-10-01T20:04:02.796Z,19.24
2022-10-01T20:06:50.202Z,19.28
2022-10-01T20:09:45.055Z,19.23
2022-10-01T20:12:51.205Z,19.21
2022-10-01T20:16:03.974Z,19.18
2022-10-01T20:19:26.675Z,19.14
2022-10-01T20:22:36.849Z,19.12
2022-10-01T20:25:42.968Z,19.09
2022-10-01T20:28:55.642Z,19.10
2022-10-01T20:32:16.031Z,19.07
2022-10-01T20:35:20.778Z,19.06
2022-10-01T20:38:27.394Z,19.02
2022-10-01T20:41:15.267Z,19.01
2022-10-01T20:44:02.068Z,18.98
2022-10-01T20:46:50.767Z,18.98
2022-10-01T20:49:40.712Z,18.95
2022-10-01T20:53:04.134Z,18.91
2022-10-01T20:56:15.907Z,18.81
2022-10-01T20:59:18.216Z,18.82
2022-10-01T21:02:39.713Z,18.80
2022-10-01T21:05:29.201Z,18.79
2022-10-01T21:08:32.675Z,18.71
2022-10-01T21:11:34.668Z,18.71
2022-10-01T21:14:36.659Z,18.69
2022-10-01T21:17:39.850Z,18.67
2022-10-01T21:20:52.653Z,18.64
2022-10-01T21:24:06.984Z,18.68
2022-10-01T21:27:13.542Z,18.66
2022-10-01T21:30:12.501Z,18.66
2022-10-01T21:33:35.502Z,18.65
2022-10-01T21:36:25.910Z,18.66
2022-10-01T21:39:18.909Z,18.61
2022-10-01T21:42:10.947Z,18.62
2022-10-01T21:45:36.195Z,18.57
2022-10-01T21:48:43.856Z,18.56
2022-10-01T21:52:10.962Z,18.54
2022-10-01T21:55:06.218Z,18.54
2022-10-01T21:58:17.143Z,18.52
2022-10-01T22:01:29.249Z,18.50
2022-10-01T22:04:32.159Z,18.50
2022-10-01T22:07:18.209Z,18.50
2022-10-01T22:10:28.281Z,18.29
2022-10-01T22:13:18.000Z,18.49
2022-10-01T22:16:10.427Z,18.48
2022-10-01T22:19:12.319Z,18.44
2022-10-01T22:22:09.618Z,18.43
2022-10-01T22:24:58.163Z,18.45
2022-10-01T22:28:06.371Z,18.40
2022-10-01T22:30:54.291Z,18.36
2022-10-01T22:33:46.055Z,18.31
2022-10-01T22:36:51.991Z,18.25
2022-10-01T22:39:44.618Z,18.27
2022-10-01T22:42:38.737Z,18.23
2022-10-01T22:45:35.686Z,18.21
2022-10-01T22:48:40.067Z,18.16
2022-10-01T22:51:52.765Z,18.16
2022-10-01T22:55:00.867Z,18.15
2022-10-01T22:57:56.237Z,18.13
2022-10-01T23:01:13.175Z,18.11
2022-10-01T23:04:07.924Z,18.10
2022-10-01T23:07:10.809Z,18.10
2022-10-01T23:10:21.881Z,18.07
2022-10-01T23:13:27.449Z,18.08
2022-10-01T23:16:38.519Z,18.02
2022-10-01T23:19:27.466Z,18.04
2022-10-01T23:22:19.009Z,18.03
2022-10-01T23:25:23.875Z,17.99
2022-10-01T23:28:46.939Z,17.99
2022-10-01T23:31:39.509Z,17.98
2022-10-01T23:34:25.566Z,17.98
2022-10-01T23:37:41.035Z,17.91
2022-10-01T23:40:45.633Z,17.90
2022-10-01T23:43:36.009Z,17.91
2022-10-01T23:46:25.814Z,17.88
2022-10-01T23:49:15.607Z,17.85
2022-10-01T23:52:25.683Z,17.84
2022-10-01T23:55:44.204Z,17.81
2022-10-01T23:58:36.201Z,17.79
